Time;durP1;ratioP1;P1;durP2;ratioP2;P2;SDS_P1;SDS_P2;PMS_P1;PMS_P2;Temp;Humidity;BMP_temperature;BMP_pressure;BME280_temperature;BME280_humidity;BME280_pressure;Samples;Min_cycle;Max_cycle;Signal;HPM_P1;HPM_P2
2023/12/26 00:00:30;;;;;;;;;;;7.40;86.80;;;;;;4994916;28;87236;-53
2023/12/26 00:02:57;;;;;;;;;;;7.40;86.90;;;;;;4998094;28;87794;-53
2023/12/26 00:05:23;;;;;;;;;;;7.40;87.00;;;;;;4997514;28;86899;-53
2023/12/26 00:07:49;;;;;;;;;;;7.40;86.90;;;;;;4996563;28;87099;-55
2023/12/26 00:10:15;;;;;;;;;;;7.40;86.80;;;;;;4997972;28;86988;-54
2023/12/26 00:12:42;;;;;;;;;;;7.40;86.80;;;;;;4996680;28;88710;-54
2023/12/26 00:15:08;;;;;;;;;;;7.40;86.70;;;;;;4997697;28;87015;-55
2023/12/26 00:17:33;;;;;;;;;;;7.30;86.80;;;;;;5000376;28;87877;-55
2023/12/26 00:19:59;;;;;;;;;;;7.30;86.80;;;;;;4998264;28;87158;-54
2023/12/26 00:22:25;;;;;;;;;;;7.30;86.60;;;;;;4994930;28;87568;-55
2023/12/26 00:24:52;;;;;;;;;;;7.30;86.60;;;;;;4997643;28;88508;-53
2023/12/26 00:27:18;;;;;;;;;;;7.30;86.60;;;;;;4995339;28;87002;-52
2023/12/26 00:29:43;;;;;;;;;;;7.30;86.60;;;;;;5000217;28;86997;-53
2023/12/26 00:32:09;;;;;;;;;;;7.30;86.60;;;;;;4997694;28;87447;-53
2023/12/26 00:34:34;;;;;;;;;;;7.30;86.70;;;;;;5000669;28;86355;-52
2023/12/26 00:37:00;;;;;;;;;;;7.30;86.60;;;;;;4996500;28;86842;-55
2023/12/26 00:39:26;;;;;;;;;;;7.20;86.60;;;;;;5003940;28;87249;-55
2023/12/26 00:41:51;;;;;;;;;;;7.20;86.60;;;;;;5002875;28;88035;-53
2023/12/26 00:44:17;;;;;;;;;;;7.20;86.60;;;;;;4997753;28;87460;-55
2023/12/26 00:46:46;;;;;;;;;;;7.20;86.60;;;;;;5004708;28;87227;-55
2023/12/26 00:49:11;;;;;;;;;;;7.20;86.60;;;;;;5001246;28;86999;-54
2023/12/26 00:51:37;;;;;;;;;;;7.20;86.50;;;;;;4997705;28;87520;-51
2023/12/26 00:54:03;;;;;;;;;;;7.20;86.60;;;;;;5001396;28;87012;-52
2023/12/26 00:56:28;;;;;;;;;;;7.20;86.60;;;;;;4998559;28;87297;-51
2023/12/26 00:58:54;;;;;;;;;;;7.20;86.60;;;;;;5001549;28;86678;-50
2023/12/26 01:01:19;;;;;;;;;;;7.10;86.40;;;;;;5006466;28;86935;-51
2023/12/26 01:03:45;;;;;;;;;;;7.10;86.40;;;;;;4999869;28;87550;-53
2023/12/26 01:06:10;;;;;;;;;;;7.20;86.40;;;;;;4999213;28;87982;-51
2023/12/26 01:08:36;;;;;;;;;;;7.10;86.30;;;;;;4999012;28;87816;-52
2023/12/26 01:11:02;;;;;;;;;;;7.10;86.40;;;;;;4999055;28;86936;-54
2023/12/26 01:13:34;;;;;;;;;;;7.10;86.50;;;;;;5001926;28;87145;-52
2023/12/26 01:16:03;;;;;;;;;;;7.10;86.50;;;;;;4996909;28;87741;-55
2023/12/26 01:18:30;;;;;;;;;;;7.10;86.40;;;;;;4993383;28;89093;-52
2023/12/26 01:20:55;;;;;;;;;;;7.10;86.40;;;;;;4998829;28;86994;-55
2023/12/26 01:23:21;;;;;;;;;;;7.10;86.40;;;;;;5000244;28;86535;-55
2023/12/26 01:25:47;;;;;;;;;;;7.10;86.40;;;;;;4999804;28;86993;-54
2023/12/26 01:28:13;;;;;;;;;;;7.10;86.40;;;;;;4999255;28;87893;-54
2023/12/26 01:30:40;;;;;;;;;;;7.00;86.30;;;;;;4999200;28;88618;-54
2023/12/26 01:33:06;;;;;;;;;;;7.00;86.20;;;;;;5001014;28;87173;-55
2023/12/26 01:35:32;;;;;;;;;;;7.00;86.20;;;;;;4997840;28;86940;-50
2023/12/26 01:37:57;;;;;;;;;;;7.00;86.20;;;;;;5000364;28;88642;-55
2023/12/26 01:40:23;;;;;;;;;;;7.00;86.20;;;;;;5001055;28;87129;-54
2023/12/26 01:42:49;;;;;;;;;;;7.00;86.20;;;;;;4999756;28;87967;-52
2023/12/26 01:45:15;;;;;;;;;;;7.00;86.20;;;;;;4998466;28;86914;-52
2023/12/26 01:47:42;;;;;;;;;;;7.00;86.30;;;;;;5001534;28;86775;-51
2023/12/26 01:50:08;;;;;;;;;;;6.90;86.20;;;;;;4999592;28;86938;-52
2023/12/26 01:52:38;;;;;;;;;;;7.00;86.20;;;;;;4999139;28;87008;-54
2023/12/26 01:55:04;;;;;;;;;;;6.90;86.10;;;;;;4998610;28;88024;-54
2023/12/26 01:57:32;;;;;;;;;;;6.90;86.10;;;;;;4996270;28;87534;-51
2023/12/26 01:59:58;;;;;;;;;;;6.90;86.10;;;;;;4999838;28;87093;-52
2023/12/26 02:02:23;;;;;;;;;;;6.90;86.10;;;;;;4997310;28;87166;-53
2023/12/26 02:04:49;;;;;;;;;;;6.90;86.10;;;;;;4999608;28;87429;-51
2023/12/26 02:07:15;;;;;;;;;;;6.90;86.10;;;;;;4999384;28;86982;-52
2023/12/26 02:09:41;;;;;;;;;;;6.90;86.10;;;;;;4998504;28;88485;-54
2023/12/26 02:12:07;;;;;;;;;;;6.90;86.10;;;;;;4999840;28;86262;-50
2023/12/26 02:14:33;;;;;;;;;;;6.90;86.10;;;;;;5001337;28;86973;-53
2023/12/26 02:17:01;;;;;;;;;;;6.80;86.10;;;;;;4997607;28;87427;-50
2023/12/26 02:19:27;;;;;;;;;;;6.80;86.00;;;;;;5000770;28;87947;-52
2023/12/26 02:21:52;;;;;;;;;;;6.80;86.00;;;;;;4999142;28;88291;-52
2023/12/26 02:24:18;;;;;;;;;;;6.80;86.00;;;;;;4999657;28;87453;-52
2023/12/26 02:26:43;;;;;;;;;;;6.80;86.10;;;;;;5007659;28;87421;-54
2023/12/26 02:29:10;;;;;;;;;;;6.80;86.10;;;;;;5001383;28;88623;-51
2023/12/26 02:31:37;;;;;;;;;;;6.80;86.00;;;;;;5000342;28;87098;-51
2023/12/26 02:34:02;;;;;;;;;;;6.70;86.00;;;;;;5000658;28;87399;-51
2023/12/26 02:36:28;;;;;;;;;;;6.70;86.10;;;;;;5002889;28;86729;-55
2023/12/26 02:38:54;;;;;;;;;;;6.70;86.00;;;;;;4995964;28;87372;-51
2023/12/26 02:41:19;;;;;;;;;;;6.70;86.00;;;;;;5001075;28;86989;-52
2023/12/26 02:43:45;;;;;;;;;;;6.70;86.10;;;;;;4997724;28;88503;-50
2023/12/26 02:46:10;;;;;;;;;;;6.70;86.10;;;;;;5000398;28;86918;-52
2023/12/26 02:48:36;;;;;;;;;;;6.70;86.00;;;;;;5003961;28;86998;-52
2023/12/26 02:51:02;;;;;;;;;;;6.70;86.00;;;;;;5001024;28;87818;-50
2023/12/26 02:53:28;;;;;;;;;;;6.70;86.00;;;;;;4998736;28;86864;-51
2023/12/26 02:55:53;;;;;;;;;;;6.70;86.10;;;;;;5002601;28;87402;-52
2023/12/26 02:58:19;;;;;;;;;;;6.60;86.00;;;;;;4996733;28;87157;-53
2023/12/26 03:00:45;;;;;;;;;;;6.60;85.90;;;;;;4997611;28;87810;-54
2023/12/26 03:03:11;;;;;;;;;;;6.60;86.10;;;;;;5000644;28;87548;-51
2023/12/26 03:05:36;;;;;;;;;;;6.60;86.10;;;;;;4996194;28;87121;-51
2023/12/26 03:08:02;;;;;;;;;;;6.60;86.60;;;;;;4998688;28;88290;-51
2023/12/26 03:10:28;;;;;;;;;;;6.60;86.20;;;;;;5004579;28;86999;-52
2023/12/26 03:12:53;;;;;;;;;;;6.50;86.10;;;;;;5002659;28;87027;-51
2023/12/26 03:15:19;;;;;;;;;;;6.50;86.10;;;;;;4993657;28;87477;-53
2023/12/26 03:17:44;;;;;;;;;;;6.50;86.00;;;;;;4997728;28;87013;-54
2023/12/26 03:20:11;;;;;;;;;;;6.50;86.10;;;;;;4995349;28;86878;-54
2023/12/26 03:22:36;;;;;;;;;;;6.50;86.00;;;;;;4997117;28;87655;-52
2023/12/26 03:25:02;;;;;;;;;;;6.50;86.10;;;;;;4995472;28;86948;-52
2023/12/26 03:27:29;;;;;;;;;;;6.50;86.00;;;;;;5000228;28;87427;-52
2023/12/26 03:29:55;;;;;;;;;;;6.50;86.10;;;;;;4994985;28;88573;-49
2023/12/26 03:32:20;;;;;;;;;;;6.50;86.00;;;;;;5000221;28;87904;-53
2023/12/26 03:34:46;;;;;;;;;;;6.50;86.10;;;;;;5003447;28;87689;-52
2023/12/26 03:37:12;;;;;;;;;;;6.40;86.00;;;;;;4995265;28;87177;-52
2023/12/26 03:39:37;;;;;;;;;;;6.50;86.00;;;;;;4999391;28;87314;-52
2023/12/26 03:42:03;;;;;;;;;;;6.40;85.90;;;;;;4999299;28;87618;-50
2023/12/26 03:44:28;;;;;;;;;;;6.40;85.90;;;;;;4996198;28;87724;-50
2023/12/26 03:46:54;;;;;;;;;;;6.40;85.90;;;;;;4993711;28;86853;-51
2023/12/26 03:49:20;;;;;;;;;;;6.40;86.00;;;;;;5001115;28;87866;-51
2023/12/26 03:51:46;;;;;;;;;;;6.40;85.90;;;;;;5000024;28;86923;-53
2023/12/26 03:54:12;;;;;;;;;;;6.40;86.00;;;;;;4996276;28;88416;-53
2023/12/26 03:56:38;;;;;;;;;;;6.40;86.00;;;;;;4996889;28;87829;-51
2023/12/26 03:59:04;;;;;;;;;;;6.30;85.90;;;;;;4996185;28;87522;-50
2023/12/26 04:01:30;;;;;;;;;;;6.30;85.90;;;;;;4999262;28;87458;-53
2023/12/26 04:03:55;;;;;;;;;;;6.30;85.90;;;;;;4995544;28;87072;-52
2023/12/26 04:06:21;;;;;;;;;;;6.30;85.90;;;;;;4995070;28;86913;-52
2023/12/26 04:08:47;;;;;;;;;;;6.30;86.00;;;;;;4994968;28;88488;-53
2023/12/26 04:11:13;;;;;;;;;;;6.30;86.00;;;;;;5002088;28;87036;-52
2023/12/26 04:13:39;;;;;;;;;;;6.30;85.90;;;;;;5003551;28;86811;-54
2023/12/26 04:16:05;;;;;;;;;;;6.30;85.90;;;;;;4996680;28;87033;-54
2023/12/26 04:18:30;;;;;;;;;;;6.30;85.90;;;;;;4993548;28;86955;-53
2023/12/26 04:20:56;;;;;;;;;;;6.30;85.90;;;;;;4995763;28;88500;-50
2023/12/26 04:23:22;;;;;;;;;;;6.30;85.90;;;;;;5002247;28;87016;-50
2023/12/26 04:25:47;;;;;;;;;;;6.20;85.80;;;;;;5001973;28;86977;-53
2023/12/26 04:28:13;;;;;;;;;;;6.20;85.80;;;;;;5001521;28;90371;-53
2023/12/26 04:30:39;;;;;;;;;;;6.20;85.90;;;;;;4994176;28;86999;-50
2023/12/26 04:33:07;;;;;;;;;;;6.20;85.90;;;;;;4998127;28;86892;-52
2023/12/26 04:35:33;;;;;;;;;;;6.20;85.90;;;;;;4997167;28;88327;-51
2023/12/26 04:37:59;;;;;;;;;;;6.20;85.90;;;;;;4995433;28;86699;-51
2023/12/26 04:40:24;;;;;;;;;;;6.20;86.00;;;;;;4998557;28;87461;-54
2023/12/26 04:42:50;;;;;;;;;;;6.20;86.00;;;;;;4994234;28;87456;-51
2023/12/26 04:45:15;;;;;;;;;;;6.20;85.90;;;;;;4994802;28;87905;-52
2023/12/26 04:47:41;;;;;;;;;;;6.10;85.90;;;;;;4997689;28;88405;-54
2023/12/26 04:50:07;;;;;;;;;;;6.10;86.00;;;;;;4995897;28;87011;-51
2023/12/26 04:52:32;;;;;;;;;;;6.10;86.00;;;;;;4996512;28;86907;-50
2023/12/26 04:54:58;;;;;;;;;;;6.10;85.90;;;;;;4994112;28;87408;-51
2023/12/26 04:57:23;;;;;;;;;;;6.10;85.90;;;;;;5006042;28;86949;-53
2023/12/26 04:59:49;;;;;;;;;;;6.10;85.90;;;;;;4997685;28;87571;-51
2023/12/26 05:02:14;;;;;;;;;;;6.10;85.90;;;;;;4999980;28;86305;-50
2023/12/26 05:04:40;;;;;;;;;;;6.10;85.90;;;;;;4994582;28;86911;-52
2023/12/26 05:07:07;;;;;;;;;;;6.10;85.90;;;;;;4993794;28;87715;-51
2023/12/26 05:09:33;;;;;;;;;;;6.00;85.80;;;;;;4993197;28;87982;-52
2023/12/26 05:11:59;;;;;;;;;;;6.00;85.90;;;;;;4988001;28;87673;-52
2023/12/26 05:14:24;;;;;;;;;;;6.00;85.90;;;;;;4994474;28;87327;-50
2023/12/26 05:16:50;;;;;;;;;;;6.00;85.90;;;;;;5000034;28;87814;-54
2023/12/26 05:19:17;;;;;;;;;;;6.00;85.90;;;;;;5000298;28;87939;-52
2023/12/26 05:21:42;;;;;;;;;;;6.00;85.90;;;;;;4998853;28;86964;-51
2023/12/26 05:24:08;;;;;;;;;;;6.00;86.00;;;;;;5000253;28;86919;-53
2023/12/26 05:26:41;;;;;;;;;;;6.00;85.90;;;;;;4998846;28;87936;-53
2023/12/26 05:29:07;;;;;;;;;;;6.00;85.90;;;;;;5001140;28;86897;-53
2023/12/26 05:31:32;;;;;;;;;;;6.00;85.90;;;;;;5003420;28;87737;-52
2023/12/26 05:33:58;;;;;;;;;;;6.00;85.80;;;;;;4995028;28;88341;-52
2023/12/26 05:36:24;;;;;;;;;;;5.90;85.80;;;;;;5000666;28;86905;-52
2023/12/26 05:38:49;;;;;;;;;;;5.90;85.80;;;;;;4997986;28;87043;-51
2023/12/26 05:41:15;;;;;;;;;;;5.90;85.80;;;;;;5004941;28;87474;-50
2023/12/26 05:43:40;;;;;;;;;;;5.90;85.90;;;;;;5005157;28;87015;-51
2023/12/26 05:46:06;;;;;;;;;;;5.90;85.90;;;;;;4996550;28;87533;-53
2023/12/26 05:48:32;;;;;;;;;;;5.90;85.80;;;;;;5003753;28;87212;-51
2023/12/26 05:50:57;;;;;;;;;;;5.80;85.90;;;;;;4998984;28;86746;-50
2023/12/26 05:53:24;;;;;;;;;;;5.90;86.00;;;;;;5000363;28;88515;-53
2023/12/26 05:55:49;;;;;;;;;;;5.80;85.90;;;;;;4996756;28;86877;-49
2023/12/26 05:58:15;;;;;;;;;;;5.80;85.90;;;;;;5004629;28;87987;-52
2023/12/26 06:00:40;;;;;;;;;;;5.80;85.90;;;;;;4998674;28;87366;-52
2023/12/26 06:03:06;;;;;;;;;;;5.80;85.80;;;;;;4994052;28;86912;-53
2023/12/26 06:05:31;;;;;;;;;;;5.80;85.90;;;;;;4996430;28;87371;-52
2023/12/26 06:07:57;;;;;;;;;;;5.80;85.90;;;;;;4998241;28;87032;-51
2023/12/26 06:10:23;;;;;;;;;;;5.80;85.80;;;;;;4999149;28;87004;-50
2023/12/26 06:12:49;;;;;;;;;;;5.80;85.80;;;;;;5003228;28;87616;-52
2023/12/26 06:15:15;;;;;;;;;;;5.80;85.80;;;;;;4999756;28;86809;-52
2023/12/26 06:17:40;;;;;;;;;;;5.70;85.70;;;;;;4993915;28;87101;-50
2023/12/26 06:20:06;;;;;;;;;;;5.80;85.80;;;;;;4994474;28;87161;-54
2023/12/26 06:22:32;;;;;;;;;;;5.70;85.70;;;;;;5002434;28;88031;-50
2023/12/26 06:24:57;;;;;;;;;;;5.70;85.70;;;;;;4999527;28;87401;-53
2023/12/26 06:27:23;;;;;;;;;;;5.70;85.70;;;;;;4996432;28;87010;-51
2023/12/26 06:29:48;;;;;;;;;;;5.70;85.80;;;;;;4998548;28;87109;-52
2023/12/26 06:32:14;;;;;;;;;;;5.70;85.80;;;;;;4997364;28;87458;-52
2023/12/26 06:34:40;;;;;;;;;;;5.70;85.70;;;;;;4996178;28;87092;-52
2023/12/26 06:37:05;;;;;;;;;;;5.70;85.70;;;;;;4996358;28;87562;-53
2023/12/26 06:39:31;;;;;;;;;;;5.70;85.70;;;;;;5004760;28;87525;-51
2023/12/26 06:41:57;;;;;;;;;;;5.70;85.80;;;;;;5001452;28;87039;-52
2023/12/26 06:44:22;;;;;;;;;;;5.70;85.80;;;;;;4999845;28;86922;-50
2023/12/26 06:46:48;;;;;;;;;;;5.70;85.70;;;;;;4995051;28;88105;-51
2023/12/26 06:49:16;;;;;;;;;;;5.70;85.60;;;;;;4998557;28;87598;-52
2023/12/26 06:51:42;;;;;;;;;;;5.70;85.50;;;;;;4995022;28;88502;-49
2023/12/26 06:54:07;;;;;;;;;;;5.60;85.50;;;;;;4997299;28;87443;-54
2023/12/26 06:56:33;;;;;;;;;;;5.60;85.50;;;;;;5000231;28;87062;-53
2023/12/26 06:58:59;;;;;;;;;;;5.60;85.50;;;;;;5004388;28;87360;-49
2023/12/26 07:01:25;;;;;;;;;;;5.60;85.60;;;;;;5000305;28;87350;-51
2023/12/26 07:03:50;;;;;;;;;;;5.60;85.60;;;;;;5002364;28;86774;-50
2023/12/26 07:06:16;;;;;;;;;;;5.60;85.60;;;;;;4999396;28;87620;-49
2023/12/26 07:08:41;;;;;;;;;;;5.60;85.60;;;;;;4998414;28;86963;-54
2023/12/26 07:11:07;;;;;;;;;;;5.60;85.70;;;;;;4994340;28;89471;-52
2023/12/26 07:13:32;;;;;;;;;;;5.60;85.70;;;;;;4998921;28;86970;-52
2023/12/26 07:15:58;;;;;;;;;;;5.60;85.60;;;;;;4996736;28;87674;-53
2023/12/26 07:18:24;;;;;;;;;;;5.60;85.60;;;;;;4994687;28;87417;-51
2023/12/26 07:20:49;;;;;;;;;;;5.60;85.50;;;;;;4998293;28;86929;-53
2023/12/26 07:23:15;;;;;;;;;;;5.60;85.60;;;;;;4993051;28;87884;-51
2023/12/26 07:25:43;;;;;;;;;;;5.50;85.50;;;;;;4996284;28;87513;-52
2023/12/26 07:28:10;;;;;;;;;;;5.50;85.60;;;;;;4998848;28;86225;-51
2023/12/26 07:30:38;;;;;;;;;;;5.60;85.50;;;;;;4999613;28;88579;-52
2023/12/26 07:33:04;;;;;;;;;;;5.60;85.70;;;;;;4994378;28;87737;-54
2023/12/26 07:35:30;;;;;;;;;;;5.60;85.60;;;;;;4996191;28;87879;-51
2023/12/26 07:37:56;;;;;;;;;;;5.50;85.70;;;;;;4994998;28;87414;-54
2023/12/26 07:40:22;;;;;;;;;;;5.50;85.70;;;;;;4998821;28;86918;-50
2023/12/26 07:42:47;;;;;;;;;;;5.50;85.60;;;;;;4997227;28;86886;-50
2023/12/26 07:45:13;;;;;;;;;;;5.50;85.60;;;;;;4994017;28;87465;-50
2023/12/26 07:47:38;;;;;;;;;;;5.50;85.70;;;;;;4996192;28;87002;-52
2023/12/26 07:50:04;;;;;;;;;;;5.50;85.60;;;;;;5000011;28;86861;-52
2023/12/26 07:52:30;;;;;;;;;;;5.50;85.60;;;;;;4993641;28;86297;-54
2023/12/26 07:54:55;;;;;;;;;;;5.50;85.60;;;;;;5001303;28;87024;-53
2023/12/26 07:57:21;;;;;;;;;;;5.50;85.70;;;;;;4995547;28;87559;-51
2023/12/26 07:59:46;;;;;;;;;;;5.50;85.70;;;;;;5000346;28;88310;-52
2023/12/26 08:02:12;;;;;;;;;;;5.50;85.60;;;;;;4998663;28;88213;-52
2023/12/26 08:04:38;;;;;;;;;;;5.50;86.20;;;;;;4999073;28;87546;-50
2023/12/26 08:07:05;;;;;;;;;;;5.50;85.60;;;;;;4999740;28;86930;-51
2023/12/26 08:09:31;;;;;;;;;;;5.50;85.60;;;;;;4999852;28;87838;-51
2023/12/26 08:11:56;;;;;;;;;;;5.50;85.70;;;;;;5000200;28;87947;-54
2023/12/26 08:14:22;;;;;;;;;;;5.50;85.70;;;;;;4995193;28;86997;-54
2023/12/26 08:16:48;;;;;;;;;;;5.50;85.70;;;;;;5002355;28;86706;-52
2023/12/26 08:19:13;;;;;;;;;;;5.50;85.80;;;;;;4998329;28;87080;-52
2023/12/26 08:21:39;;;;;;;;;;;5.50;85.90;;;;;;4993091;28;88135;-53
2023/12/26 08:24:07;;;;;;;;;;;5.50;85.90;;;;;;4997534;28;89847;-51
2023/12/26 08:26:32;;;;;;;;;;;5.50;85.90;;;;;;5002754;28;86989;-52
2023/12/26 08:28:58;;;;;;;;;;;5.50;85.90;;;;;;4996340;28;87236;-52
2023/12/26 08:31:24;;;;;;;;;;;5.40;86.00;;;;;;4996617;28;87423;-54
2023/12/26 08:33:50;;;;;;;;;;;5.40;86.00;;;;;;4994730;28;86881;-54
2023/12/26 08:36:15;;;;;;;;;;;5.50;85.90;;;;;;5000403;28;88636;-52
2023/12/26 08:38:42;;;;;;;;;;;5.40;86.20;;;;;;4992833;28;87924;-52
2023/12/26 08:41:09;;;;;;;;;;;5.40;86.10;;;;;;4994221;28;86207;-52
2023/12/26 08:43:35;;;;;;;;;;;5.40;86.10;;;;;;4994835;28;88516;-53
2023/12/26 08:46:01;;;;;;;;;;;5.40;86.10;;;;;;4998412;28;87078;-53
2023/12/26 08:48:26;;;;;;;;;;;5.50;86.20;;;;;;4995538;28;87636;-53
2023/12/26 08:50:52;;;;;;;;;;;5.40;86.20;;;;;;4996356;28;87514;-55
2023/12/26 08:53:19;;;;;;;;;;;5.40;86.20;;;;;;4998915;28;87016;-53
2023/12/26 08:55:46;;;;;;;;;;;5.40;86.30;;;;;;5001957;28;87266;-54
2023/12/26 08:58:12;;;;;;;;;;;5.40;86.20;;;;;;4995883;28;87126;-51
2023/12/26 09:00:38;;;;;;;;;;;5.40;86.30;;;;;;5002515;28;87912;-54
2023/12/26 09:03:04;;;;;;;;;;;5.40;86.50;;;;;;4997281;28;87443;-53
2023/12/26 09:05:29;;;;;;;;;;;5.40;86.50;;;;;;4998708;28;86239;-54
2023/12/26 09:07:55;;;;;;;;;;;5.40;86.40;;;;;;5000912;28;87520;-55
2023/12/26 09:10:20;;;;;;;;;;;5.40;86.60;;;;;;4997216;28;88699;-51
2023/12/26 09:12:46;;;;;;;;;;;5.40;86.60;;;;;;5001974;28;87860;-53
2023/12/26 09:15:12;;;;;;;;;;;5.40;86.50;;;;;;5001071;28;87637;-52
2023/12/26 09:17:37;;;;;;;;;;;5.40;86.40;;;;;;4999529;28;87013;-54
2023/12/26 09:20:03;;;;;;;;;;;5.40;86.50;;;;;;5002449;28;86907;-52
2023/12/26 09:22:29;;;;;;;;;;;5.50;86.50;;;;;;4996924;28;86981;-51
2023/12/26 09:24:54;;;;;;;;;;;5.40;86.50;;;;;;5001751;28;87132;-51
2023/12/26 09:27:20;;;;;;;;;;;5.40;86.40;;;;;;5001452;28;88225;-51
2023/12/26 09:29:46;;;;;;;;;;;5.40;86.30;;;;;;4998589;28;86649;-53
2023/12/26 09:32:11;;;;;;;;;;;5.50;86.40;;;;;;5000588;28;86950;-54
2023/12/26 09:34:37;;;;;;;;;;;5.50;86.60;;;;;;5000566;28;87630;-50
2023/12/26 09:37:02;;;;;;;;;;;5.50;86.50;;;;;;4999648;28;88493;-53
2023/12/26 09:39:28;;;;;;;;;;;5.40;86.50;;;;;;4998906;28;88943;-52
2023/12/26 09:41:55;;;;;;;;;;;5.40;86.60;;;;;;5001149;28;87588;-51
2023/12/26 09:44:21;;;;;;;;;;;5.40;86.60;;;;;;4999655;28;87080;-53
2023/12/26 09:46:46;;;;;;;;;;;5.40;86.80;;;;;;4998205;28;87052;-54
2023/12/26 09:49:12;;;;;;;;;;;5.40;86.80;;;;;;4998170;28;87498;-53
2023/12/26 09:51:43;;;;;;;;;;;5.40;86.70;;;;;;4998812;28;87340;-51
2023/12/26 09:54:09;;;;;;;;;;;5.40;86.90;;;;;;5004408;28;87800;-54
2023/12/26 09:56:38;;;;;;;;;;;5.40;86.70;;;;;;5000102;28;87679;-52
2023/12/26 09:59:04;;;;;;;;;;;5.40;86.80;;;;;;5006748;28;86933;-52
2023/12/26 10:01:30;;;;;;;;;;;5.50;86.60;;;;;;5000433;28;90211;-53
2023/12/26 10:03:56;;;;;;;;;;;5.40;86.70;;;;;;4997255;28;86890;-53
2023/12/26 10:06:22;;;;;;;;;;;5.40;86.60;;;;;;5006711;28;87085;-51
2023/12/26 10:08:48;;;;;;;;;;;5.50;86.60;;;;;;4997269;28;88429;-51
2023/12/26 10:11:14;;;;;;;;;;;5.50;86.60;;;;;;4998341;28;86993;-52
2023/12/26 10:13:51;;;;;;;;;;;5.50;86.70;;;;;;4996157;28;87017;-54
2023/12/26 10:16:16;;;;;;;;;;;5.50;86.60;;;;;;5001558;28;88555;-53
2023/12/26 10:18:42;;;;;;;;;;;5.50;86.70;;;;;;5003699;28;86245;-53
2023/12/26 10:21:08;;;;;;;;;;;5.50;86.80;;;;;;5000205;28;87342;-54
2023/12/26 10:23:34;;;;;;;;;;;5.40;86.70;;;;;;4999847;28;87028;-54
2023/12/26 10:26:00;;;;;;;;;;;5.50;86.70;;;;;;5001872;28;87888;-53
2023/12/26 10:28:25;;;;;;;;;;;5.50;86.70;;;;;;4999422;28;88369;-51
2023/12/26 10:30:51;;;;;;;;;;;5.50;86.90;;;;;;4994875;28;87114;-50
2023/12/26 10:33:26;;;;;;;;;;;5.50;86.70;;;;;;4998070;28;87074;-54
2023/12/26 10:36:01;;;;;;;;;;;5.40;86.70;;;;;;4995341;28;88500;-50
2023/12/26 10:38:27;;;;;;;;;;;5.50;86.80;;;;;;4997140;28;86887;-53
2023/12/26 10:40:55;;;;;;;;;;;5.50;86.70;;;;;;5006853;28;87821;-51
2023/12/26 10:43:21;;;;;;;;;;;5.50;86.90;;;;;;5001364;28;86493;-51
2023/12/26 10:45:47;;;;;;;;;;;5.50;87.30;;;;;;4997417;28;87052;-51
2023/12/26 10:48:14;;;;;;;;;;;5.50;86.90;;;;;;4995985;28;87283;-50
2023/12/26 10:50:39;;;;;;;;;;;5.50;87.00;;;;;;4999510;28;88004;-49
2023/12/26 10:53:16;;;;;;;;;;;5.50;86.60;;;;;;5000185;28;87607;-50
2023/12/26 10:55:44;;;;;;;;;;;5.50;86.60;;;;;;4995549;28;89195;-53
2023/12/26 10:58:40;;;;;;;;;;;5.50;86.90;;;;;;4998263;28;87043;-51
2023/12/26 11:01:06;;;;;;;;;;;5.50;86.60;;;;;;4997931;28;87597;-52
2023/12/26 13:52:31;;;;;;;;;;;6.20;90.60;;;;;;4991463;28;87557;-53
2023/12/26 13:54:57;;;;;;;;;;;6.70;80.00;;;;;;4996980;28;88142;-57
2023/12/26 13:57:22;;;;;;;;;;;7.10;74.70;;;;;;4995736;28;87260;-59
2023/12/26 13:59:48;;;;;;;;;;;7.30;75.50;;;;;;5002598;28;87124;-49
2023/12/26 14:02:13;;;;;;;;;;;7.50;73.70;;;;;;4998040;28;87388;-49
2023/12/26 14:04:39;;;;;;;;;;;7.50;75.10;;;;;;4997172;28;88504;-50
2023/12/26 14:07:05;;;;;;;;;;;7.20;79.40;;;;;;4997374;28;87122;-52
2023/12/26 14:09:30;;;;;;;;;;;7.00;81.40;;;;;;5002844;28;88130;-52
2023/12/26 14:11:56;;;;;;;;;;;7.00;81.30;;;;;;4997341;28;88223;-50
2023/12/26 14:14:22;;;;;;;;;;;7.10;82.50;;;;;;4996265;28;86898;-50
2023/12/26 14:16:47;;;;;;;;;;;7.00;84.20;;;;;;4997738;28;88305;-53
2023/12/26 14:19:13;;;;;;;;;;;7.00;85.00;;;;;;5004115;28;89442;-54
2023/12/26 14:21:39;;;;;;;;;;;7.00;85.80;;;;;;5000003;28;88873;-50
2023/12/26 14:24:04;;;;;;;;;;;6.90;82.60;;;;;;4997756;28;87615;-47
2023/12/26 14:26:30;;;;;;;;;;;7.00;80.50;;;;;;4999501;28;87826;-54
2023/12/26 14:28:55;;;;;;;;;;;7.20;79.30;;;;;;4997088;28;87015;-47
2023/12/26 14:31:23;;;;;;;;;;;7.30;79.60;;;;;;4998933;28;87619;-48
2023/12/26 14:33:49;;;;;;;;;;;7.30;78.10;;;;;;5000972;28;86915;-57
2023/12/26 14:36:15;;;;;;;;;;;7.40;77.00;;;;;;5007915;28;86684;-57
2023/12/26 14:38:40;;;;;;;;;;;7.40;77.20;;;;;;5004304;28;86991;-61
2023/12/26 14:41:06;;;;;;;;;;;7.40;77.00;;;;;;5003076;28;88696;-53
2023/12/26 14:43:32;;;;;;;;;;;7.40;76.50;;;;;;5006767;28;87792;-67
2023/12/26 14:45:58;;;;;;;;;;;7.40;76.30;;;;;;5007668;28;87370;-60
2023/12/26 14:48:23;;;;;;;;;;;7.50;76.70;;;;;;5002196;28;87399;-64
2023/12/26 14:50:49;;;;;;;;;;;7.50;75.90;;;;;;5004020;28;88481;-61
2023/12/26 14:53:15;;;;;;;;;;;7.40;76.00;;;;;;5010198;28;86991;-61
2023/12/26 14:55:40;;;;;;;;;;;7.30;75.50;;;;;;5005058;28;87347;-61
2023/12/26 14:58:06;;;;;;;;;;;7.30;75.60;;;;;;4999721;28;87301;-59
2023/12/26 15:00:31;;;;;;;;;;;7.30;76.00;;;;;;4998781;28;88045;-57
2023/12/26 15:02:57;;;;;;;;;;;7.40;75.30;;;;;;4995581;28;87371;-65
2023/12/26 15:05:23;;;;;;;;;;;7.40;75.60;;;;;;5000838;28;87085;-60
2023/12/26 15:07:48;;;;;;;;;;;7.40;76.10;;;;;;4995620;28;87918;-59
2023/12/26 15:10:14;;;;;;;;;;;7.40;75.90;;;;;;4995613;28;87522;-58
2023/12/26 15:12:39;;;;;;;;;;;7.40;76.60;;;;;;4999291;28;87061;-62
2023/12/26 15:15:07;;;;;;;;;;;7.40;77.30;;;;;;5000769;28;86863;-62
2023/12/26 15:17:32;;;;;;;;;;;7.40;77.50;;;;;;4995831;28;86894;-66
2023/12/26 15:19:58;;;;;;;;;;;7.40;76.80;;;;;;4997449;28;86921;-64
2023/12/26 15:22:24;;;;;;;;;;;7.50;78.20;;;;;;4992203;28;87468;-61
2023/12/26 15:24:49;;;;;;;;;;;7.40;78.40;;;;;;4995992;28;86278;-67
2023/12/26 15:27:15;;;;;;;;;;;7.60;76.30;;;;;;4995439;28;87244;-60
2023/12/26 15:29:40;;;;;;;;;;;7.70;76.70;;;;;;4997681;28;87455;-59
2023/12/26 15:32:09;;;;;;;;;;;7.60;78.70;;;;;;4998925;28;87870;-68
2023/12/26 15:34:35;;;;;;;;;;;7.60;79.10;;;;;;4998280;28;87459;-60
2023/12/26 15:37:01;;;;;;;;;;;7.60;78.70;;;;;;4998244;28;87880;-54
2023/12/26 15:39:26;;;;;;;;;;;7.50;77.40;;;;;;4999626;28;87327;-58
2023/12/26 15:42:10;;;;;;;;;;;7.60;78.10;;;;;;4998227;28;87924;-62
2023/12/26 15:44:36;;;;;;;;;;;7.60;80.00;;;;;;4999009;28;87096;-58
2023/12/26 15:47:02;;;;;;;;;;;7.60;79.10;;;;;;5002078;28;89568;-67
2023/12/26 15:49:28;;;;;;;;;;;7.60;78.70;;;;;;4999082;28;86214;-57
2023/12/26 15:51:53;;;;;;;;;;;7.60;78.10;;;;;;4995191;28;86930;-61
2023/12/26 15:54:19;;;;;;;;;;;7.60;78.40;;;;;;4999041;28;87033;-61
2023/12/26 15:56:44;;;;;;;;;;;7.50;79.30;;;;;;4996421;28;89378;-60
2023/12/26 15:59:10;;;;;;;;;;;7.60;80.40;;;;;;5000480;28;87143;-73
2023/12/26 16:01:36;;;;;;;;;;;7.60;80.40;;;;;;4996891;28;87435;-59
2023/12/26 16:04:01;;;;;;;;;;;7.60;80.00;;;;;;4996803;28;86775;-56
2023/12/26 16:06:30;;;;;;;;;;;7.60;79.90;;;;;;4994991;28;86983;-60
2023/12/26 16:08:55;;;;;;;;;;;7.70;81.10;;;;;;4996831;28;87446;-61
2023/12/26 16:11:21;;;;;;;;;;;7.70;79.90;;;;;;4998235;28;86996;-58
2023/12/26 16:13:47;;;;;;;;;;;7.70;79.60;;;;;;4995641;28;87842;-64
2023/12/26 16:16:13;;;;;;;;;;;7.70;79.10;;;;;;4999760;28;87388;-61
2023/12/26 16:18:39;;;;;;;;;;;7.70;80.30;;;;;;4994534;28;87423;-58
2023/12/26 16:21:07;;;;;;;;;;;7.80;79.10;;;;;;5000252;28;87806;-59
2023/12/26 16:23:33;;;;;;;;;;;7.80;80.80;;;;;;4995776;28;87084;-58
2023/12/26 16:26:02;;;;;;;;;;;7.70;80.30;;;;;;4997310;28;86891;-58
2023/12/26 16:28:28;;;;;;;;;;;7.70;78.60;;;;;;4997470;28;88603;-56
2023/12/26 16:30:54;;;;;;;;;;;7.80;79.10;;;;;;4996535;28;87046;-65
2023/12/26 16:33:19;;;;;;;;;;;7.70;78.50;;;;;;4997678;28;86922;-58
2023/12/26 16:35:45;;;;;;;;;;;7.70;76.60;;;;;;4995237;28;87309;-54
2023/12/26 16:38:10;;;;;;;;;;;7.70;77.50;;;;;;4998097;28;86322;-60
2023/12/26 16:40:36;;;;;;;;;;;7.70;77.20;;;;;;4994555;28;86929;-62
2023/12/26 16:43:01;;;;;;;;;;;7.70;77.30;;;;;;5000730;28;88417;-56
2023/12/26 16:45:27;;;;;;;;;;;7.80;78.00;;;;;;4993558;28;87918;-65
2023/12/26 16:47:53;;;;;;;;;;;7.90;76.30;;;;;;5000327;28;87646;-61
2023/12/26 16:50:19;;;;;;;;;;;7.90;76.80;;;;;;4994233;28;86972;-56
2023/12/26 16:52:44;;;;;;;;;;;7.90;77.70;;;;;;4995593;28;86940;-59
2023/12/26 16:55:10;;;;;;;;;;;7.80;75.80;;;;;;4996705;28;86865;-61
2023/12/26 16:57:36;;;;;;;;;;;7.80;77.20;;;;;;4997737;28;87027;-65
2023/12/26 17:00:02;;;;;;;;;;;7.80;77.70;;;;;;4996526;28;86917;-62
2023/12/26 17:02:28;;;;;;;;;;;7.80;78.70;;;;;;4998803;28;86908;-50
2023/12/26 17:04:53;;;;;;;;;;;7.80;78.90;;;;;;4996953;28;87002;-60
2023/12/26 17:07:19;;;;;;;;;;;7.80;78.50;;;;;;5001237;28;88335;-58
2023/12/26 17:09:45;;;;;;;;;;;7.90;77.80;;;;;;4996376;28;89880;-63
2023/12/26 17:12:10;;;;;;;;;;;7.90;77.80;;;;;;4994726;28;87504;-69